createdAt,value
2022-07-29T00:01:22.634Z,80.66
2022-07-29T00:03:51.119Z,80.40
2022-07-29T00:06:19.458Z,80.53
2022-07-29T00:08:47.678Z,80.65
2022-07-29T00:11:16.268Z,79.20
2022-07-29T00:13:50.769Z,78.51
2022-07-29T00:16:19.459Z,78.46
2022-07-29T00:18:47.969Z,78.45
2022-07-29T00:21:16.299Z,79.01
2022-07-29T00:23:44.594Z,78.85
2022-07-29T00:26:12.945Z,80.61
2022-07-29T00:28:41.121Z,81.97
2022-07-29T00:31:10.797Z,83.03
2022-07-29T00:33:39.048Z,82.01
2022-07-29T00:36:06.661Z,83.13
2022-07-29T00:38:34.983Z,84.38
2022-07-29T00:41:03.515Z,85.18
2022-07-29T00:43:31.815Z,83.81
2022-07-29T00:45:59.990Z,84.21
2022-07-29T00:48:29.943Z,84.15
2022-07-29T00:50:59.674Z,83.91
2022-07-29T00:53:29.700Z,83.13
2022-07-29T00:55:58.920Z,83.70
2022-07-29T00:58:28.802Z,84.13
2022-07-29T01:00:57.215Z,83.87
2022-07-29T01:03:26.135Z,83.59
2022-07-29T01:05:56.627Z,83.21
2022-07-29T01:08:25.649Z,83.56
2022-07-29T01:10:55.329Z,84.36
2022-07-29T01:13:24.906Z,83.81
2022-07-29T01:15:59.151Z,85.03
2022-07-29T01:18:34.230Z,85.95
2022-07-29T01:21:49.344Z,84.25
2022-07-29T01:24:36.236Z,85.76
2022-07-29T01:27:24.664Z,87.66
2022-07-29T01:29:59.014Z,86.90
2022-07-29T01:32:31.380Z,86.31
2022-07-29T01:35:05.875Z,85.00
2022-07-29T01:37:40.856Z,84.55
2022-07-29T01:40:16.603Z,85.70
2022-07-29T01:42:46.829Z,86.28
2022-07-29T01:45:19.371Z,85.48
2022-07-29T01:47:55.650Z,87.17
2022-07-29T01:50:29.188Z,88.56
2022-07-29T01:53:00.749Z,89.35
2022-07-29T01:55:33.414Z,88.26
2022-07-29T01:58:03.906Z,86.88
2022-07-29T02:00:35.535Z,87.36
2022-07-29T02:03:08.059Z,89.11
2022-07-29T02:05:39.594Z,90.76
2022-07-29T02:08:08.929Z,91.10
2022-07-29T02:10:40.683Z,90.35
2022-07-29T02:13:11.614Z,89.98
2022-07-29T02:15:44.813Z,90.11
2022-07-29T02:18:17.985Z,89.78
2022-07-29T02:20:49.503Z,91.13
2022-07-29T02:23:22.052Z,91.42
2022-07-29T02:25:53.571Z,91.45
2022-07-29T02:28:24.428Z,91.45
2022-07-29T02:30:58.024Z,90.80
2022-07-29T02:33:27.721Z,90.02
2022-07-29T02:35:57.881Z,90.92
2022-07-29T02:38:46.153Z,91.41
2022-07-29T02:41:17.774Z,90.21
2022-07-29T02:43:49.214Z,90.17
2022-07-29T02:46:29.394Z,90.95
2022-07-29T02:49:01.621Z,92.66
2022-07-29T02:51:43.573Z,92.81
2022-07-29T02:54:21.926Z,93.77
2022-07-29T02:56:53.799Z,92.65
2022-07-29T02:59:25.698Z,92.18
2022-07-29T03:01:57.861Z,92.04
2022-07-29T03:04:29.739Z,92.42
2022-07-29T03:07:01.610Z,92.17
2022-07-29T03:09:30.880Z,93.60
2022-07-29T03:11:59.750Z,91.80
2022-07-29T03:14:28.778Z,91.50
2022-07-29T03:16:58.876Z,93.13
2022-07-29T03:19:28.379Z,93.42
2022-07-29T03:21:58.785Z,92.88
2022-07-29T03:24:32.786Z,92.98
2022-07-29T03:27:01.478Z,94.48
2022-07-29T03:29:33.792Z,95.57
2022-07-29T03:32:08.454Z,94.14
2022-07-29T03:34:38.641Z,93.36
2022-07-29T03:37:08.159Z,94.85
2022-07-29T03:39:41.829Z,94.34
2022-07-29T03:42:12.677Z,94.63
2022-07-29T03:44:43.450Z,96.57
2022-07-29T03:47:16.304Z,98.41
2022-07-29T03:49:46.795Z,97.15
2022-07-29T03:52:15.642Z,95.29
2022-07-29T03:54:43.976Z,96.12
2022-07-29T03:57:13.862Z,97.15
2022-07-29T03:59:42.848Z,98.34
2022-07-29T04:02:14.906Z,99.27
2022-07-29T04:04:46.245Z,99.02
2022-07-29T04:07:15.485Z,98.99
2022-07-29T04:09:44.255Z,98.01
2022-07-29T04:12:12.977Z,98.15
2022-07-29T04:14:41.279Z,98.33
2022-07-29T04:17:09.969Z,97.69
2022-07-29T04:19:39.616Z,98.00
2022-07-29T04:22:07.913Z,98.07
2022-07-29T04:24:37.096Z,97.18
2022-07-29T04:27:05.442Z,95.62
2022-07-29T04:29:33.786Z,95.56
2022-07-29T04:32:02.423Z,94.55
2022-07-29T04:34:30.700Z,93.67
2022-07-29T04:37:00.373Z,93.06
2022-07-29T04:39:30.414Z,92.41
2022-07-29T04:41:59.145Z,91.79
2022-07-29T04:44:28.550Z,90.75
2022-07-29T04:46:58.943Z,90.00
2022-07-29T04:49:27.603Z,89.48
2022-07-29T04:51:56.590Z,88.52
2022-07-29T04:54:26.473Z,91.22
2022-07-29T04:56:54.736Z,92.45
2022-07-29T04:59:23.796Z,90.71
2022-07-29T05:01:52.140Z,89.64
2022-07-29T05:04:20.888Z,89.35
2022-07-29T05:06:49.559Z,89.53
2022-07-29T05:09:18.126Z,87.91
2022-07-29T05:11:47.732Z,86.01
2022-07-29T05:14:16.408Z,84.01
2022-07-29T05:16:44.983Z,82.93
2022-07-29T05:19:14.556Z,82.26
2022-07-29T05:21:43.924Z,82.97
2022-07-29T05:24:12.871Z,83.18
2022-07-29T05:26:41.951Z,82.67
2022-07-29T05:29:44.664Z,82.07
2022-07-29T05:32:00.637Z,80.93
2022-07-29T05:34:29.054Z,80.77
2022-07-29T05:36:57.665Z,80.79
2022-07-29T05:39:47.198Z,79.99
2022-07-29T05:42:14.374Z,79.25
2022-07-29T05:44:44.175Z,78.16
2022-07-29T05:47:13.540Z,79.25
2022-07-29T05:49:41.789Z,78.45
2022-07-29T05:52:11.203Z,77.37
2022-07-29T05:54:39.570Z,77.33
2022-07-29T05:57:08.703Z,75.44
2022-07-29T05:59:38.231Z,73.88
2022-07-29T06:02:07.956Z,74.11
2022-07-29T06:04:36.796Z,73.04
2022-07-29T06:07:05.310Z,72.89
2022-07-29T06:09:36.141Z,71.49
2022-07-29T06:12:05.361Z,71.36
2022-07-29T06:14:33.867Z,69.57
2022-07-29T06:17:02.107Z,69.50
2022-07-29T06:19:31.871Z,69.24
2022-07-29T06:22:00.198Z,67.56
2022-07-29T06:24:28.466Z,67.76
2022-07-29T06:26:57.116Z,67.48
2022-07-29T06:29:25.563Z,67.93
2022-07-29T06:31:53.963Z,68.25
2022-07-29T06:34:22.538Z,66.30
2022-07-29T06:36:54.215Z,66.84
2022-07-29T06:39:23.165Z,67.32
2022-07-29T06:41:52.558Z,66.87
2022-07-29T06:44:21.099Z,65.10
2022-07-29T06:46:51.022Z,63.74
2022-07-29T06:49:19.440Z,63.90
2022-07-29T06:51:48.211Z,63.34
2022-07-29T06:54:18.338Z,63.32
2022-07-29T06:56:47.075Z,63.99
2022-07-29T06:59:15.585Z,64.36
2022-07-29T07:01:45.474Z,61.91
2022-07-29T07:04:14.786Z,62.61
2022-07-29T07:06:43.510Z,63.25
2022-07-29T07:09:11.815Z,62.66
2022-07-29T07:11:41.835Z,61.26
2022-07-29T07:14:10.060Z,60.89
2022-07-29T07:16:38.399Z,62.68
2022-07-29T07:19:06.833Z,62.55
2022-07-29T07:21:36.065Z,60.46
2022-07-29T07:24:08.440Z,59.60
2022-07-29T07:26:36.964Z,60.12
2022-07-29T07:29:06.628Z,60.03
2022-07-29T07:31:35.014Z,59.38
2022-07-29T07:34:03.303Z,57.38
2022-07-29T07:36:31.988Z,56.20
2022-07-29T07:39:00.232Z,54.63
2022-07-29T07:41:32.479Z,54.37
2022-07-29T07:44:01.310Z,55.64
2022-07-29T07:46:31.430Z,55.42
2022-07-29T07:48:59.701Z,55.33
2022-07-29T07:51:28.150Z,54.74
2022-07-29T07:53:56.390Z,52.66
2022-07-29T07:56:25.941Z,53.38
2022-07-29T07:58:54.152Z,51.65
2022-07-29T08:01:24.186Z,50.41
2022-07-29T08:03:53.923Z,49.97
2022-07-29T08:06:22.485Z,49.91
2022-07-29T08:08:51.987Z,51.37
2022-07-29T08:11:20.329Z,51.00
2022-07-29T08:13:48.746Z,51.39
2022-07-29T08:16:17.316Z,50.01
2022-07-29T08:18:47.154Z,51.28
2022-07-29T08:21:17.516Z,51.24
2022-07-29T08:23:57.991Z,50.06
2022-07-29T08:26:27.314Z,48.45
2022-07-29T08:28:55.728Z,49.11
2022-07-29T08:31:24.178Z,48.13
2022-07-29T08:33:52.592Z,48.49
2022-07-29T08:36:23.476Z,48.03
2022-07-29T08:38:52.188Z,46.67
2022-07-29T08:41:21.231Z,47.93
2022-07-29T08:43:49.768Z,47.90
2022-07-29T08:46:18.747Z,50.60
2022-07-29T08:48:47.316Z,49.46
2022-07-29T08:51:17.960Z,50.51
2022-07-29T08:53:50.018Z,49.09
2022-07-29T08:56:19.990Z,49.53
2022-07-29T08:58:51.867Z,49.74
2022-07-29T09:01:36.482Z,50.26
2022-07-29T09:04:14.176Z,51.64
2022-07-29T09:06:47.312Z,51.97
2022-07-29T09:09:17.942Z,52.23
2022-07-29T09:11:46.610Z,53.13
2022-07-29T09:14:15.774Z,52.59
2022-07-29T09:16:53.435Z,55.01
2022-07-29T09:19:27.723Z,52.53
2022-07-29T09:22:03.613Z,53.05
2022-07-29T09:24:45.441Z,53.55
2022-07-29T09:27:23.393Z,52.16
2022-07-29T09:30:02.578Z,54.17
2022-07-29T09:32:32.362Z,52.76
2022-07-29T09:35:22.421Z,51.51
2022-07-29T09:37:51.555Z,53.14
2022-07-29T09:40:23.370Z,51.29
2022-07-29T09:42:52.261Z,51.97
2022-07-29T09:45:31.972Z,51.39
2022-07-29T09:48:04.298Z,51.98
2022-07-29T09:50:40.454Z,52.35
2022-07-29T09:53:10.761Z,52.48
2022-07-29T09:55:51.858Z,52.70
2022-07-29T09:58:20.888Z,51.21
2022-07-29T10:00:51.173Z,50.65
2022-07-29T10:03:19.904Z,49.86
2022-07-29T10:05:48.701Z,51.03
2022-07-29T10:08:27.820Z,50.88
2022-07-29T10:11:12.255Z,53.18
2022-07-29T10:13:41.651Z,53.37
2022-07-29T10:16:11.020Z,52.68
2022-07-29T10:18:41.895Z,53.57
2022-07-29T10:21:11.251Z,52.92
2022-07-29T10:23:52.404Z,51.61
2022-07-29T10:26:22.853Z,51.34
2022-07-29T10:28:51.361Z,52.61
2022-07-29T10:31:30.355Z,54.87
2022-07-29T10:34:09.817Z,54.61
2022-07-29T10:36:51.380Z,55.22
2022-07-29T10:42:33.592Z,54.76
2022-07-29T10:45:04.358Z,54.38
2022-07-29T10:47:35.067Z,54.92
2022-07-29T10:50:05.986Z,53.12
2022-07-29T10:52:55.533Z,54.00
2022-07-29T10:55:47.795Z,53.42
2022-07-29T10:58:19.585Z,52.23
2022-07-29T11:00:49.511Z,52.78
2022-07-29T11:03:49.274Z,52.37
2022-07-29T11:06:26.999Z,51.98
2022-07-29T11:09:20.105Z,51.30
2022-07-29T11:11:51.595Z,50.85
2022-07-29T11:15:02.820Z,48.21
2022-07-29T11:17:47.120Z,49.43
2022-07-29T11:20:37.934Z,47.49
2022-07-29T11:23:24.669Z,48.46
2022-07-29T11:26:18.891Z,48.51
2022-07-29T11:28:56.061Z,47.88
2022-07-29T11:31:37.914Z,47.76
2022-07-29T11:34:27.988Z,47.08
2022-07-29T11:37:31.097Z,45.32
2022-07-29T11:40:21.391Z,45.20
2022-07-29T11:42:52.396Z,44.42
2022-07-29T11:48:28.820Z,44.63
2022-07-29T11:51:02.978Z,45.84
2022-07-29T11:53:32.783Z,45.88
2022-07-29T11:56:03.445Z,45.74
2022-07-29T11:58:32.726Z,45.97
2022-07-29T12:01:04.923Z,46.20
2022-07-29T12:03:36.820Z,45.71
2022-07-29T12:06:13.845Z,46.14
2022-07-29T12:08:45.134Z,46.11
2022-07-29T12:11:22.606Z,48.43
2022-07-29T12:13:52.288Z,48.56
2022-07-29T12:16:27.935Z,49.75
2022-07-29T12:19:04.245Z,48.48
2022-07-29T12:21:56.187Z,46.95
2022-07-29T12:24:26.574Z,46.23
2022-07-29T12:26:57.220Z,46.21
2022-07-29T12:29:35.584Z,46.53
2022-07-29T12:32:14.721Z,47.33
2022-07-29T12:34:49.636Z,46.85
2022-07-29T12:37:18.099Z,48.16
2022-07-29T12:39:46.578Z,47.52
2022-07-29T12:42:18.392Z,47.63
2022-07-29T12:44:51.499Z,47.84
2022-07-29T12:47:20.758Z,47.85
2022-07-29T12:49:51.925Z,48.26
2022-07-29T12:52:27.672Z,48.44
2022-07-29T12:54:56.261Z,48.96
2022-07-29T12:57:25.103Z,49.27
2022-07-29T13:00:08.940Z,48.26
2022-07-29T13:02:37.526Z,49.37
2022-07-29T13:05:09.446Z,49.95
2022-07-29T13:07:54.608Z,49.34
2022-07-29T13:10:26.193Z,49.50
2022-07-29T13:13:05.581Z,48.81
2022-07-29T13:15:34.279Z,49.17
2022-07-29T13:18:02.759Z,48.93
2022-07-29T13:20:33.187Z,49.07
2022-07-29T13:23:02.798Z,48.57
2022-07-29T13:25:33.131Z,48.02
2022-07-29T13:28:01.891Z,47.41
2022-07-29T13:30:30.459Z,45.22
2022-07-29T13:32:58.804Z,43.36
2022-07-29T13:35:27.008Z,41.84
2022-07-29T13:37:56.614Z,39.05
2022-07-29T13:40:24.829Z,39.62
2022-07-29T13:42:53.155Z,38.41
2022-07-29T13:45:21.450Z,38.25
2022-07-29T13:47:49.644Z,39.60
2022-07-29T13:50:17.814Z,39.34
2022-07-29T13:52:46.027Z,40.96
2022-07-29T13:55:15.718Z,40.59
2022-07-29T13:57:44.050Z,42.04
2022-07-29T14:00:13.979Z,41.46
2022-07-29T14:02:42.169Z,40.83
2022-07-29T14:05:11.893Z,40.93
2022-07-29T14:07:41.023Z,38.30
2022-07-29T14:10:10.225Z,38.62
2022-07-29T14:12:40.502Z,37.03
2022-07-29T14:15:09.895Z,35.60
2022-07-29T14:17:38.135Z,35.26
2022-07-29T14:20:07.634Z,36.82
2022-07-29T14:22:38.980Z,35.68
2022-07-29T14:25:14.683Z,36.39
2022-07-29T14:27:45.383Z,35.63
2022-07-29T14:30:14.538Z,36.61
2022-07-29T14:32:43.129Z,35.95
2022-07-29T14:35:11.741Z,34.79
2022-07-29T14:37:41.263Z,33.28
2022-07-29T14:40:11.482Z,32.25
2022-07-29T14:42:40.636Z,33.21
2022-07-29T14:45:11.734Z,33.60
2022-07-29T14:47:40.737Z,33.37
2022-07-29T14:50:10.086Z,34.79
2022-07-29T14:52:38.405Z,32.92
2022-07-29T14:55:16.421Z,33.99
2022-07-29T14:57:47.970Z,32.32
2022-07-29T15:00:18.711Z,31.60
2022-07-29T15:03:01.452Z,31.51
2022-07-29T15:05:30.966Z,32.34
2022-07-29T15:07:59.927Z,31.74
2022-07-29T15:10:28.431Z,31.86
2022-07-29T15:12:58.568Z,32.72
2022-07-29T15:15:28.452Z,34.15
2022-07-29T15:17:56.714Z,34.60
2022-07-29T15:20:28.249Z,34.22
2022-07-29T15:22:57.204Z,34.34
2022-07-29T15:25:25.462Z,34.43
2022-07-29T15:28:00.990Z,34.69
2022-07-29T15:30:34.270Z,32.84
2022-07-29T15:33:04.201Z,33.35
2022-07-29T15:35:32.612Z,31.92
2022-07-29T15:38:01.223Z,31.28
2022-07-29T15:40:29.879Z,29.14
2022-07-29T15:43:01.842Z,29.84
2022-07-29T15:45:32.463Z,28.17
2022-07-29T15:48:00.899Z,28.27
2022-07-29T15:50:29.584Z,26.92
2022-07-29T15:52:57.821Z,26.24
2022-07-29T15:55:26.427Z,25.33
2022-07-29T15:58:00.009Z,25.00
2022-07-29T16:00:29.067Z,24.22
2022-07-29T16:02:58.963Z,23.80
2022-07-29T16:05:29.938Z,22.49
2022-07-29T16:08:00.992Z,22.04
2022-07-29T16:10:29.613Z,21.80
2022-07-29T16:12:58.220Z,21.05
2022-07-29T16:15:26.677Z,20.78
2022-07-29T16:17:54.907Z,20.86
2022-07-29T16:20:24.555Z,20.49
2022-07-29T16:22:53.813Z,21.47
2022-07-29T16:25:38.406Z,23.04
2022-07-29T16:28:11.470Z,23.59
2022-07-29T16:30:39.741Z,22.74
2022-07-29T16:33:08.570Z,22.30
2022-07-29T16:35:40.510Z,21.90
2022-07-29T16:38:09.347Z,22.06
2022-07-29T16:40:37.698Z,22.94
2022-07-29T16:43:06.504Z,22.93
2022-07-29T16:45:43.933Z,23.21
2022-07-29T16:50:45.046Z,23.93
2022-07-29T16:53:13.408Z,24.79
2022-07-29T16:55:42.430Z,25.63
2022-07-29T16:58:11.184Z,26.42
2022-07-29T17:00:39.752Z,28.02
2022-07-29T17:03:08.007Z,30.30
2022-07-29T17:05:50.527Z,32.77
2022-07-29T17:08:23.903Z,34.78
2022-07-29T17:10:52.203Z,35.80
2022-07-29T17:13:20.995Z,37.49
2022-07-29T17:15:49.242Z,38.45
2022-07-29T17:18:17.702Z,39.96
2022-07-29T17:20:45.955Z,40.56
2022-07-29T17:23:14.150Z,41.12
2022-07-29T17:25:43.809Z,41.95
2022-07-29T17:28:12.130Z,46.38
2022-07-29T17:30:40.414Z,47.53
2022-07-29T17:33:08.678Z,47.83
2022-07-29T17:35:54.644Z,48.15
2022-07-29T17:38:22.959Z,48.56
2022-07-29T17:40:58.454Z,49.34
2022-07-29T17:43:27.989Z,49.41
2022-07-29T17:45:59.421Z,50.34
2022-07-29T17:48:28.403Z,53.10
2022-07-29T17:50:58.206Z,54.57
2022-07-29T17:53:26.472Z,56.32
2022-07-29T17:55:58.289Z,55.46
2022-07-29T17:58:26.856Z,55.80
2022-07-29T18:00:55.124Z,56.06
2022-07-29T18:03:24.004Z,54.70
2022-07-29T18:05:52.455Z,55.05
2022-07-29T18:08:20.997Z,57.24
2022-07-29T18:10:49.427Z,57.98
2022-07-29T18:13:20.361Z,58.88
2022-07-29T18:15:48.680Z,58.68
2022-07-29T18:18:18.511Z,60.61
2022-07-29T18:20:47.103Z,61.10
2022-07-29T18:23:15.742Z,59.50
2022-07-29T18:25:44.199Z,59.48
2022-07-29T18:28:12.502Z,59.96
2022-07-29T18:30:42.219Z,60.76
2022-07-29T18:33:22.342Z,62.07
2022-07-29T18:35:52.550Z,63.01
2022-07-29T18:38:41.317Z,62.55
2022-07-29T18:41:09.648Z,62.33
2022-07-29T18:43:37.876Z,60.54
2022-07-29T18:46:07.683Z,60.96
2022-07-29T18:48:36.417Z,62.19
2022-07-29T18:51:09.278Z,61.72
2022-07-29T18:53:37.992Z,62.06
2022-07-29T18:56:06.458Z,61.09
2022-07-29T18:58:34.663Z,62.30
2022-07-29T19:01:03.103Z,63.27
2022-07-29T19:03:32.753Z,61.78
2022-07-29T19:06:01.270Z,62.52
2022-07-29T19:08:29.553Z,62.56
2022-07-29T19:10:57.803Z,63.05
2022-07-29T19:13:26.352Z,63.20
2022-07-29T19:15:54.662Z,64.43
2022-07-29T19:18:22.864Z,63.08
2022-07-29T19:20:52.640Z,61.85
2022-07-29T19:23:20.906Z,61.12
2022-07-29T19:25:53.380Z,62.48
2022-07-29T19:28:22.424Z,62.51
2022-07-29T19:30:50.939Z,61.20
2022-07-29T19:33:19.375Z,61.38
2022-07-29T19:35:50.370Z,61.38
2022-07-29T19:38:22.845Z,61.90
2022-07-29T19:40:51.041Z,60.70
2022-07-29T19:43:50.632Z,60.87
2022-07-29T19:46:07.770Z,60.41
2022-07-29T19:48:36.035Z,60.09
2022-07-29T19:51:04.355Z,60.55
2022-07-29T19:53:34.077Z,60.95
2022-07-29T19:56:02.281Z,60.36
2022-07-29T19:58:32.964Z,60.17
2022-07-29T20:01:01.164Z,59.92
2022-07-29T20:03:29.480Z,60.35
2022-07-29T20:05:57.719Z,60.68
2022-07-29T20:08:25.938Z,61.56
2022-07-29T20:10:56.176Z,62.77
2022-07-29T20:13:24.696Z,65.02
2022-07-29T20:15:52.982Z,67.47
2022-07-29T20:18:21.201Z,70.26
2022-07-29T20:20:49.920Z,71.00
2022-07-29T20:23:19.585Z,72.96
2022-07-29T20:25:47.828Z,73.39
2022-07-29T20:28:17.557Z,74.71
2022-07-29T20:30:47.623Z,79.42
2022-07-29T20:33:16.383Z,84.82
2022-07-29T20:35:44.810Z,88.39
2022-07-29T20:38:17.794Z,92.36
2022-07-29T20:40:46.701Z,98.05
2022-07-29T20:43:14.922Z,100.00
2022-07-29T20:45:44.616Z,100.00
2022-07-29T20:48:14.035Z,97.78
2022-07-29T20:50:42.931Z,95.54
2022-07-29T20:53:11.325Z,100.00
2022-07-29T20:55:39.770Z,100.00
2022-07-29T20:58:09.243Z,100.00
2022-07-29T21:00:37.756Z,100.00
2022-07-29T21:03:07.675Z,100.00
2022-07-29T21:05:38.045Z,100.00
2022-07-29T21:08:07.004Z,100.00
2022-07-29T21:10:35.410Z,100.00
2022-07-29T21:13:03.887Z,100.00
2022-07-29T21:15:32.809Z,100.00
2022-07-29T21:18:03.194Z,100.00
2022-07-29T21:20:34.063Z,100.00
2022-07-29T21:23:02.811Z,100.00
2022-07-29T21:25:31.035Z,100.00
2022-07-29T21:28:16.668Z,100.00
2022-07-29T21:30:44.969Z,100.00
2022-07-29T21:33:13.386Z,100.00
2022-07-29T21:36:06.311Z,100.00
2022-07-29T21:38:31.363Z,100.00
2022-07-29T21:40:59.610Z,100.00
2022-07-29T21:43:29.035Z,100.00
2022-07-29T21:45:57.717Z,100.00
2022-07-29T21:48:27.859Z,100.00
2022-07-29T21:50:58.146Z,100.00
2022-07-29T21:53:28.736Z,100.00
2022-07-29T21:55:59.073Z,100.00
2022-07-29T21:58:27.713Z,100.00
2022-07-29T22:00:56.047Z,100.00
2022-07-29T22:03:24.422Z,100.00
2022-07-29T22:05:53.164Z,100.00
2022-07-29T22:08:22.922Z,100.00
2022-07-29T22:10:51.236Z,100.00
2022-07-29T22:13:19.513Z,100.00
2022-07-29T22:15:48.268Z,100.00
2022-07-29T22:18:20.669Z,100.00
2022-07-29T22:20:50.134Z,100.00
2022-07-29T22:23:18.478Z,100.00
2022-07-29T22:25:48.223Z,100.00
2022-07-29T22:28:16.699Z,100.00
2022-07-29T22:30:45.017Z,100.00
2022-07-29T22:33:17.835Z,100.00
2022-07-29T22:35:48.715Z,100.00
2022-07-29T22:38:17.462Z,100.00
2022-07-29T22:40:45.673Z,100.00
2022-07-29T22:43:16.822Z,100.00
2022-07-29T22:45:45.400Z,100.00
2022-07-29T22:48:13.864Z,100.00
2022-07-29T22:50:42.445Z,100.00
2022-07-29T22:53:11.151Z,100.00
2022-07-29T22:55:39.433Z,100.00
2022-07-29T22:58:07.719Z,100.00
2022-07-29T23:00:37.822Z,100.00
2022-07-29T23:03:06.047Z,100.00
2022-07-29T23:05:34.554Z,100.00
2022-07-29T23:08:02.792Z,100.00
2022-07-29T23:10:31.041Z,100.00
2022-07-29T23:12:59.197Z,100.00
2022-07-29T23:15:27.443Z,100.00
2022-07-29T23:17:57.100Z,100.00
2022-07-29T23:20:25.413Z,100.00
2022-07-29T23:22:53.843Z,100.00
2022-07-29T23:25:22.539Z,100.00
2022-07-29T23:27:50.918Z,100.00
2022-07-29T23:30:19.670Z,100.00
2022-07-29T23:32:47.993Z,100.00
2022-07-29T23:35:17.542Z,100.00
2022-07-29T23:37:45.906Z,100.00
2022-07-29T23:40:15.115Z,100.00
2022-07-29T23:42:43.839Z,100.00
2022-07-29T23:45:13.511Z,100.00
2022-07-29T23:47:42.220Z,100.00
2022-07-29T23:50:13.331Z,100.00
2022-07-29T23:52:43.332Z,100.00
2022-07-29T23:55:37.032Z,100.00
2022-07-29T23:58:01.327Z,100.00
